sensor_id;sensor_type;location;lat;lon;timestamp;pressure;altitude;pressure_sealevel;temperature;humidity
74905;BME280;63465;50.862;6.220;2023-01-19T00:02:23;98590.53;;;1.69;77.61
74905;BME280;63465;50.862;6.220;2023-01-19T00:04:50;98584.31;;;1.73;77.69
74905;BME280;63465;50.862;6.220;2023-01-19T00:07:18;98588.50;;;1.77;77.63
74905;BME280;63465;50.862;6.220;2023-01-19T00:09:44;98588.72;;;1.71;77.54
74905;BME280;63465;50.862;6.220;2023-01-19T00:12:11;98588.59;;;1.74;77.73
74905;BME280;63465;50.862;6.220;2023-01-19T00:14:38;98589.16;;;1.86;77.14
74905;BME280;63465;50.862;6.220;2023-01-19T00:17:04;98578.84;;;1.81;77.52
74905;BME280;63465;50.862;6.220;2023-01-19T00:19:31;98582.06;;;1.89;76.65
74905;BME280;63465;50.862;6.220;2023-01-19T00:21:58;98576.88;;;1.88;77.37
74905;BME280;63465;50.862;6.220;2023-01-19T00:24:26;98580.38;;;1.87;77.04
74905;BME280;63465;50.862;6.220;2023-01-19T00:26:53;98575.09;;;1.88;77.24
74905;BME280;63465;50.862;6.220;2023-01-19T00:29:19;98580.13;;;1.94;76.45
74905;BME280;63465;50.862;6.220;2023-01-19T00:31:46;98583.81;;;1.89;76.77
74905;BME280;63465;50.862;6.220;2023-01-19T00:34:13;98576.66;;;1.94;76.45
74905;BME280;63465;50.862;6.220;2023-01-19T00:36:39;98575.28;;;1.82;76.98
74905;BME280;63465;50.862;6.220;2023-01-19T00:39:06;98574.63;;;1.75;77.21
74905;BME280;63465;50.862;6.220;2023-01-19T00:41:35;98584.22;;;1.76;77.54
74905;BME280;63465;50.862;6.220;2023-01-19T00:44:19;98574.75;;;1.72;77.56
74905;BME280;63465;50.862;6.220;2023-01-19T00:46:45;98579.22;;;1.69;77.70
74905;BME280;63465;50.862;6.220;2023-01-19T00:49:12;98581.78;;;1.70;77.04
74905;BME280;63465;50.862;6.220;2023-01-19T00:51:39;98588.72;;;1.71;77.29
74905;BME280;63465;50.862;6.220;2023-01-19T00:54:05;98574.94;;;1.66;77.66
74905;BME280;63465;50.862;6.220;2023-01-19T00:56:36;98579.97;;;1.72;77.53
74905;BME280;63465;50.862;6.220;2023-01-19T00:59:03;98581.69;;;1.73;77.11
74905;BME280;63465;50.862;6.220;2023-01-19T01:01:30;98585.91;;;1.77;76.95
74905;BME280;63465;50.862;6.220;2023-01-19T01:03:56;98586.00;;;1.74;77.24
74905;BME280;63465;50.862;6.220;2023-01-19T01:06:23;98578.34;;;1.68;77.37
74905;BME280;63465;50.862;6.220;2023-01-19T01:08:50;98578.25;;;1.71;77.61
74905;BME280;63465;50.862;6.220;2023-01-19T01:11:16;98593.28;;;1.65;77.84
74905;BME280;63465;50.862;6.220;2023-01-19T01:13:44;98594.03;;;1.68;77.60
74905;BME280;63465;50.862;6.220;2023-01-19T01:16:13;98588.59;;;1.74;77.38
74905;BME280;63465;50.862;6.220;2023-01-19T01:18:40;98599.72;;;1.83;77.40
74905;BME280;63465;50.862;6.220;2023-01-19T01:21:11;98598.53;;;1.91;76.76
74905;BME280;63465;50.862;6.220;2023-01-19T01:23:38;98607.13;;;1.96;76.61
74905;BME280;63465;50.862;6.220;2023-01-19T01:26:05;98603.88;;;1.88;77.24
74905;BME280;63465;50.862;6.220;2023-01-19T01:28:31;98596.13;;;1.85;77.10
74905;BME280;63465;50.862;6.220;2023-01-19T01:30:59;98604.78;;;1.87;77.23
74905;BME280;63465;50.862;6.220;2023-01-19T01:33:26;98607.25;;;1.92;76.79
74905;BME280;63465;50.862;6.220;2023-01-19T01:35:53;98620.59;;;1.84;77.29
74905;BME280;63465;50.862;6.220;2023-01-19T01:38:19;98614.56;;;1.81;76.96
74905;BME280;63465;50.862;6.220;2023-01-19T01:40:46;98606.59;;;1.85;77.06
74905;BME280;63465;50.862;6.220;2023-01-19T01:43:15;98612.88;;;1.80;77.14
74905;BME280;63465;50.862;6.220;2023-01-19T01:45:42;98610.25;;;1.80;77.20
74905;BME280;63465;50.862;6.220;2023-01-19T01:48:13;98615.59;;;1.76;77.22
74905;BME280;63465;50.862;6.220;2023-01-19T01:50:44;98619.91;;;1.77;77.02
74905;BME280;63465;50.862;6.220;2023-01-19T01:53:28;98614.75;;;1.74;77.16
74905;BME280;63465;50.862;6.220;2023-01-19T01:55:56;98619.38;;;1.66;77.40
74905;BME280;63465;50.862;6.220;2023-01-19T01:58:23;98614.09;;;1.68;77.15
74905;BME280;63465;50.862;6.220;2023-01-19T02:00:50;98612.25;;;1.71;77.57
74905;BME280;63465;50.862;6.220;2023-01-19T02:03:32;98607.38;;;1.59;77.48
74905;BME280;63465;50.862;6.220;2023-01-19T02:06:00;98604.72;;;1.60;77.64
74905;BME280;63465;50.862;6.220;2023-01-19T02:08:36;98609.06;;;1.62;77.77
74905;BME280;63465;50.862;6.220;2023-01-19T02:11:21;98607.34;;;1.60;77.71
74905;BME280;63465;50.862;6.220;2023-01-19T02:14:05;98609.25;;;1.55;77.84
74905;BME280;63465;50.862;6.220;2023-01-19T02:16:32;98598.78;;;1.55;78.19
74905;BME280;63465;50.862;6.220;2023-01-19T02:19:01;98600.75;;;1.49;78.13
74905;BME280;63465;50.862;6.220;2023-01-19T02:21:34;98599.81;;;1.50;78.21
74905;BME280;63465;50.862;6.220;2023-01-19T02:24:03;98603.34;;;1.49;77.86
74905;BME280;63465;50.862;6.220;2023-01-19T02:26:35;98599.13;;;1.45;78.23
74905;BME280;63465;50.862;6.220;2023-01-19T02:29:04;98609.56;;;1.45;78.00
74905;BME280;63465;50.862;6.220;2023-01-19T02:31:33;98602.56;;;1.45;78.08
74905;BME280;63465;50.862;6.220;2023-01-19T02:34:01;98594.88;;;1.40;78.32
74905;BME280;63465;50.862;6.220;2023-01-19T02:36:35;98599.03;;;1.48;77.96
74905;BME280;63465;50.862;6.220;2023-01-19T02:39:05;98605.97;;;1.49;77.95
74905;BME280;63465;50.862;6.220;2023-01-19T02:41:38;98598.22;;;1.46;78.10
74905;BME280;63465;50.862;6.220;2023-01-19T02:44:07;98598.25;;;1.44;78.28
74905;BME280;63465;50.862;6.220;2023-01-19T02:46:35;98608.84;;;1.39;78.71
74905;BME280;63465;50.862;6.220;2023-01-19T02:49:03;98611.44;;;1.41;78.22
74905;BME280;63465;50.862;6.220;2023-01-19T02:51:30;98606.00;;;1.47;77.86
74905;BME280;63465;50.862;6.220;2023-01-19T02:54:08;98608.50;;;1.52;77.83
74905;BME280;63465;50.862;6.220;2023-01-19T02:56:51;98598.09;;;1.50;77.66
74905;BME280;63465;50.862;6.220;2023-01-19T02:59:32;98611.25;;;1.47;78.21
74905;BME280;63465;50.862;6.220;2023-01-19T03:02:13;98611.44;;;1.41;78.06
74905;BME280;63465;50.862;6.220;2023-01-19T03:05:00;98616.53;;;1.46;77.74
74905;BME280;63465;50.862;6.220;2023-01-19T03:07:43;98615.53;;;1.48;77.84
74905;BME280;63465;50.862;6.220;2023-01-19T03:10:19;98608.72;;;1.44;78.09
74905;BME280;63465;50.862;6.220;2023-01-19T03:12:51;98609.66;;;1.41;77.98
74905;BME280;63465;50.862;6.220;2023-01-19T03:15:22;98604.38;;;1.43;78.00
74905;BME280;63465;50.862;6.220;2023-01-19T03:17:52;98599.88;;;1.48;77.78
74905;BME280;63465;50.862;6.220;2023-01-19T03:20:22;98598.94;;;1.51;77.92
74905;BME280;63465;50.862;6.220;2023-01-19T03:22:57;98590.28;;;1.49;77.92
74905;BME280;63465;50.862;6.220;2023-01-19T03:25:28;98602.16;;;1.59;77.34
74905;BME280;63465;50.862;6.220;2023-01-19T03:27:57;98611.91;;;1.54;77.72
74905;BME280;63465;50.862;6.220;2023-01-19T03:30:27;98609.28;;;1.54;77.22
74905;BME280;63465;50.862;6.220;2023-01-19T03:32:57;98610.78;;;1.63;77.11
74905;BME280;63465;50.862;6.220;2023-01-19T03:35:28;98614.19;;;1.65;77.32
74905;BME280;63465;50.862;6.220;2023-01-19T03:37:57;98613.31;;;1.66;77.13
74905;BME280;63465;50.862;6.220;2023-01-19T03:40:29;98612.44;;;1.65;77.36
74905;BME280;63465;50.862;6.220;2023-01-19T03:42:58;98602.84;;;1.66;76.85
74905;BME280;63465;50.862;6.220;2023-01-19T03:45:25;98603.50;;;1.72;76.77
74905;BME280;63465;50.862;6.220;2023-01-19T03:47:53;98595.75;;;1.69;76.73
74905;BME280;63465;50.862;6.220;2023-01-19T03:50:23;98610.69;;;1.66;77.35
74905;BME280;63465;50.862;6.220;2023-01-19T03:53:05;98606.16;;;1.71;77.21
74905;BME280;63465;50.862;6.220;2023-01-19T03:55:34;98611.16;;;1.78;76.72
74905;BME280;63465;50.862;6.220;2023-01-19T03:58:02;98609.34;;;1.81;76.68
74905;BME280;63465;50.862;6.220;2023-01-19T04:00:29;98606.81;;;1.77;76.76
74905;BME280;63465;50.862;6.220;2023-01-19T04:02:56;98618.00;;;1.83;76.83
74905;BME280;63465;50.862;6.220;2023-01-19T04:05:23;98628.53;;;1.81;76.48
74905;BME280;63465;50.862;6.220;2023-01-19T04:07:50;98623.06;;;1.89;76.33
74905;BME280;63465;50.862;6.220;2023-01-19T04:10:17;98626.47;;;1.91;76.28
74905;BME280;63465;50.862;6.220;2023-01-19T04:12:46;98623.75;;;1.94;76.16
74905;BME280;63465;50.862;6.220;2023-01-19T04:15:13;98623.16;;;1.86;76.25
74905;BME280;63465;50.862;6.220;2023-01-19T04:17:40;98627.16;;;1.96;76.33
74905;BME280;63465;50.862;6.220;2023-01-19T04:20:08;98631.59;;;1.94;76.46
74905;BME280;63465;50.862;6.220;2023-01-19T04:22:35;98623.47;;;2.03;76.21
74905;BME280;63465;50.862;6.220;2023-01-19T04:25:04;98617.81;;;1.89;76.72
74905;BME280;63465;50.862;6.220;2023-01-19T04:27:31;98614.13;;;1.94;76.27
74905;BME280;63465;50.862;6.220;2023-01-19T04:29:59;98622.56;;;2.04;76.39
74905;BME280;63465;50.862;6.220;2023-01-19T04:32:26;98623.56;;;2.00;76.17
74905;BME280;63465;50.862;6.220;2023-01-19T04:34:52;98625.78;;;2.12;75.69
74905;BME280;63465;50.862;6.220;2023-01-19T04:37:19;98615.53;;;2.06;75.95
74905;BME280;63465;50.862;6.220;2023-01-19T04:39:46;98612.66;;;2.14;76.08
74905;BME280;63465;50.862;6.220;2023-01-19T04:42:13;98617.94;;;2.12;76.38
74905;BME280;63465;50.862;6.220;2023-01-19T04:44:39;98624.34;;;2.04;76.44
74905;BME280;63465;50.862;6.220;2023-01-19T04:47:07;98611.91;;;2.10;76.22
74905;BME280;63465;50.862;6.220;2023-01-19T04:49:34;98625.59;;;2.19;76.50
74905;BME280;63465;50.862;6.220;2023-01-19T04:52:02;98628.22;;;2.19;76.45
74905;BME280;63465;50.862;6.220;2023-01-19T04:54:29;98640.34;;;2.21;75.97
74905;BME280;63465;50.862;6.220;2023-01-19T04:56:56;98632.50;;;2.21;76.12
74905;BME280;63465;50.862;6.220;2023-01-19T04:59:22;98632.66;;;2.17;76.59
74905;BME280;63465;50.862;6.220;2023-01-19T05:01:49;98648.69;;;2.32;76.34
74905;BME280;63465;50.862;6.220;2023-01-19T05:04:17;98655.91;;;2.26;76.36
74905;BME280;63465;50.862;6.220;2023-01-19T05:06:44;98644.00;;;2.16;77.08
74905;BME280;63465;50.862;6.220;2023-01-19T05:09:10;98657.25;;;2.11;77.37
74905;BME280;63465;50.862;6.220;2023-01-19T05:11:39;98659.19;;;2.04;77.64
74905;BME280;63465;50.862;6.220;2023-01-19T05:14:06;98657.28;;;2.09;77.95
74905;BME280;63465;50.862;6.220;2023-01-19T05:16:33;98661.72;;;2.07;78.34
74905;BME280;63465;50.862;6.220;2023-01-19T05:19:00;98667.81;;;2.08;79.22
74905;BME280;63465;50.862;6.220;2023-01-19T05:21:28;98675.69;;;2.06;79.53
74905;BME280;63465;50.862;6.220;2023-01-19T05:23:55;98676.97;;;1.93;79.28
74905;BME280;63465;50.862;6.220;2023-01-19T05:26:21;98679.53;;;1.94;79.41
74905;BME280;63465;50.862;6.220;2023-01-19T05:28:48;98675.00;;;2.01;79.62
74905;BME280;63465;50.862;6.220;2023-01-19T05:31:15;98678.38;;;2.05;79.84
74905;BME280;63465;50.862;6.220;2023-01-19T05:33:41;98681.81;;;2.07;79.95
74905;BME280;63465;50.862;6.220;2023-01-19T05:36:08;98679.38;;;2.01;80.58
74905;BME280;63465;50.862;6.220;2023-01-19T05:38:36;98685.56;;;1.98;80.51
74905;BME280;63465;50.862;6.220;2023-01-19T05:41:03;98685.19;;;1.81;82.04
74905;BME280;63465;50.862;6.220;2023-01-19T05:43:30;98693.97;;;1.80;82.24
74905;BME280;63465;50.862;6.220;2023-01-19T05:45:56;98689.84;;;1.71;82.56
74905;BME280;63465;50.862;6.220;2023-01-19T05:48:23;98701.50;;;1.59;83.90
74905;BME280;63465;50.862;6.220;2023-01-19T05:50:50;98705.75;;;1.63;84.62
74905;BME280;63465;50.862;6.220;2023-01-19T05:53:17;98701.84;;;1.78;83.87
74905;BME280;63465;50.862;6.220;2023-01-19T05:55:45;98695.38;;;1.60;84.66
74905;BME280;63465;50.862;6.220;2023-01-19T05:58:11;98702.66;;;1.80;84.12
74905;BME280;63465;50.862;6.220;2023-01-19T06:00:38;98708.09;;;1.72;84.45
74905;BME280;63465;50.862;6.220;2023-01-19T06:03:05;98699.72;;;1.61;84.95
74905;BME280;63465;50.862;6.220;2023-01-19T06:05:31;98699.41;;;1.72;84.65
74905;BME280;63465;50.862;6.220;2023-01-19T06:07:58;98703.00;;;1.68;84.36
74905;BME280;63465;50.862;6.220;2023-01-19T06:10:25;98708.72;;;1.81;84.20
74905;BME280;63465;50.862;6.220;2023-01-19T06:12:53;98710.81;;;1.69;84.02
74905;BME280;63465;50.862;6.220;2023-01-19T06:15:20;98711.44;;;1.77;84.35
74905;BME280;63465;50.862;6.220;2023-01-19T06:17:47;98714.97;;;1.76;84.48
74905;BME280;63465;50.862;6.220;2023-01-19T06:20:13;98716.03;;;1.69;84.21
74905;BME280;63465;50.862;6.220;2023-01-19T06:22:40;98719.53;;;1.68;84.28
74905;BME280;63465;50.862;6.220;2023-01-19T06:25:08;98708.06;;;1.74;84.28
74905;BME280;63465;50.862;6.220;2023-01-19T06:27:36;98713.06;;;1.52;85.60
74905;BME280;63465;50.862;6.220;2023-01-19T06:30:06;98713.22;;;1.46;85.57
74905;BME280;63465;50.862;6.220;2023-01-19T06:32:33;98725.28;;;1.50;85.54
74905;BME280;63465;50.862;6.220;2023-01-19T06:35:00;98725.56;;;1.40;85.78
74905;BME280;63465;50.862;6.220;2023-01-19T06:37:27;98732.47;;;1.43;85.83
74905;BME280;63465;50.862;6.220;2023-01-19T06:39:55;98738.31;;;1.51;85.97
74905;BME280;63465;50.862;6.220;2023-01-19T06:42:21;98749.81;;;1.46;86.05
74905;BME280;63465;50.862;6.220;2023-01-19T06:44:48;98754.72;;;1.58;86.08
74905;BME280;63465;50.862;6.220;2023-01-19T06:47:16;98761.63;;;1.59;85.48
74905;BME280;63465;50.862;6.220;2023-01-19T06:49:43;98769.44;;;1.60;85.45
74905;BME280;63465;50.862;6.220;2023-01-19T06:52:10;98773.91;;;1.57;85.86
74905;BME280;63465;50.862;6.220;2023-01-19T06:54:38;98764.13;;;1.64;85.56
74905;BME280;63465;50.862;6.220;2023-01-19T06:57:05;98779.19;;;1.55;85.76
74905;BME280;63465;50.862;6.220;2023-01-19T06:59:31;98779.72;;;1.67;85.81
74905;BME280;63465;50.862;6.220;2023-01-19T07:01:58;98783.56;;;1.55;86.44
74905;BME280;63465;50.862;6.220;2023-01-19T07:04:26;98782.81;;;1.50;87.21
74905;BME280;63465;50.862;6.220;2023-01-19T07:06:53;98790.44;;;1.57;86.71
74905;BME280;63465;50.862;6.220;2023-01-19T07:09:20;98802.63;;;1.58;86.46
74905;BME280;63465;50.862;6.220;2023-01-19T07:14:21;98798.63;;;1.45;86.47
74905;BME280;63465;50.862;6.220;2023-01-19T07:16:47;98803.03;;;1.43;87.19
74905;BME280;63465;50.862;6.220;2023-01-19T07:19:14;98804.03;;;1.37;87.10
74905;BME280;63465;50.862;6.220;2023-01-19T07:21:42;98799.75;;;1.68;86.55
74905;BME280;63465;50.862;6.220;2023-01-19T07:24:08;98809.03;;;1.47;86.70
74905;BME280;63465;50.862;6.220;2023-01-19T07:26:35;98801.03;;;1.53;86.49
74905;BME280;63465;50.862;6.220;2023-01-19T07:29:02;98807.38;;;1.44;86.69
74905;BME280;63465;50.862;6.220;2023-01-19T07:31:28;98815.25;;;1.42;87.04
74905;BME280;63465;50.862;6.220;2023-01-19T07:33:55;98813.38;;;1.48;86.61
74905;BME280;63465;50.862;6.220;2023-01-19T07:36:22;98819.41;;;1.50;86.64
74905;BME280;63465;50.862;6.220;2023-01-19T07:38:50;98806.41;;;1.47;86.75
74905;BME280;63465;50.862;6.220;2023-01-19T07:41:17;98794.91;;;1.54;86.22
74905;BME280;63465;50.862;6.220;2023-01-19T07:43:43;98791.66;;;1.46;86.67
74905;BME280;63465;50.862;6.220;2023-01-19T07:46:10;98795.19;;;1.43;86.84
74905;BME280;63465;50.862;6.220;2023-01-19T07:48:37;98796.31;;;1.33;86.96
74905;BME280;63465;50.862;6.220;2023-01-19T07:51:04;98802.44;;;1.33;87.45
74905;BME280;63465;50.862;6.220;2023-01-19T07:53:33;98803.13;;;1.40;87.44
74905;BME280;63465;50.862;6.220;2023-01-19T07:56:01;98809.28;;;1.37;87.45
74905;BME280;63465;50.862;6.220;2023-01-19T07:58:30;98820.50;;;1.42;87.13
74905;BME280;63465;50.862;6.220;2023-01-19T08:00:57;98816.78;;;1.50;87.11
74905;BME280;63465;50.862;6.220;2023-01-19T08:03:23;98823.09;;;1.42;87.24
74905;BME280;63465;50.862;6.220;2023-01-19T08:05:51;98825.34;;;1.56;86.80
74905;BME280;63465;50.862;6.220;2023-01-19T08:08:19;98822.94;;;1.49;86.93
74905;BME280;63465;50.862;6.220;2023-01-19T08:10:48;98833.97;;;1.60;86.58
74905;BME280;63465;50.862;6.220;2023-01-19T08:13:17;98830.00;;;1.45;86.68
74905;BME280;63465;50.862;6.220;2023-01-19T08:15:46;98831.75;;;1.45;86.72
74905;BME280;63465;50.862;6.220;2023-01-19T08:18:14;98834.84;;;1.59;86.55
74905;BME280;63465;50.862;6.220;2023-01-19T08:20:40;98829.38;;;1.68;85.94
74905;BME280;63465;50.862;6.220;2023-01-19T08:23:07;98840.09;;;1.59;86.32
74905;BME280;63465;50.862;6.220;2023-01-19T08:25:36;98845.78;;;1.75;85.23
74905;BME280;63465;50.862;6.220;2023-01-19T08:28:05;98845.88;;;1.72;85.21
74905;BME280;63465;50.862;6.220;2023-01-19T08:30:34;98851.66;;;1.83;84.91
74905;BME280;63465;50.862;6.220;2023-01-19T08:33:01;98855.56;;;2.00;84.28
74905;BME280;63465;50.862;6.220;2023-01-19T08:35:34;98854.09;;;1.89;84.02
74905;BME280;63465;50.862;6.220;2023-01-19T08:38:01;98852.41;;;1.87;83.81
74905;BME280;63465;50.862;6.220;2023-01-19T08:40:28;98856.66;;;1.91;84.35
74905;BME280;63465;50.862;6.220;2023-01-19T08:42:58;98864.25;;;2.00;84.20
74905;BME280;63465;50.862;6.220;2023-01-19T08:45:27;98865.78;;;2.09;83.81
74905;BME280;63465;50.862;6.220;2023-01-19T08:47:56;98861.88;;;2.24;83.28
74905;BME280;63465;50.862;6.220;2023-01-19T08:50:24;98870.22;;;2.07;83.49
74905;BME280;63465;50.862;6.220;2023-01-19T08:52:51;98867.09;;;1.92;83.80
74905;BME280;63465;50.862;6.220;2023-01-19T08:55:17;98871.19;;;2.03;83.94
74905;BME280;63465;50.862;6.220;2023-01-19T08:57:44;98875.28;;;2.13;83.73
74905;BME280;63465;50.862;6.220;2023-01-19T09:00:12;98875.56;;;2.02;83.92
74905;BME280;63465;50.862;6.220;2023-01-19T09:02:39;98873.28;;;1.88;84.15
74905;BME280;63465;50.862;6.220;2023-01-19T09:05:07;98876.72;;;1.92;84.48
74905;BME280;63465;50.862;6.220;2023-01-19T09:07:34;98882.59;;;2.00;84.12
74905;BME280;63465;50.862;6.220;2023-01-19T09:10:01;98876.59;;;1.96;83.94
74905;BME280;63465;50.862;6.220;2023-01-19T09:12:28;98880.50;;;2.13;83.64
74905;BME280;63465;50.862;6.220;2023-01-19T09:14:55;98887.22;;;2.22;83.33
74905;BME280;63465;50.862;6.220;2023-01-19T09:17:21;98883.97;;;2.13;83.71
74905;BME280;63465;50.862;6.220;2023-01-19T09:19:48;98883.88;;;2.17;83.41
74905;BME280;63465;50.862;6.220;2023-01-19T09:22:16;98891.78;;;2.15;83.65
74905;BME280;63465;50.862;6.220;2023-01-19T09:24:43;98895.59;;;2.35;83.25
74905;BME280;63465;50.862;6.220;2023-01-19T09:27:09;98901.31;;;2.18;83.32
74905;BME280;63465;50.862;6.220;2023-01-19T09:29:36;98901.78;;;2.32;82.85
74905;BME280;63465;50.862;6.220;2023-01-19T09:32:03;98897.78;;;2.19;83.26
74905;BME280;63465;50.862;6.220;2023-01-19T09:34:30;98910.13;;;2.13;83.45
74905;BME280;63465;50.862;6.220;2023-01-19T09:36:57;98914.78;;;2.35;83.31
74905;BME280;63465;50.862;6.220;2023-01-19T09:39:25;98910.28;;;2.39;82.69
74905;BME280;63465;50.862;6.220;2023-01-19T09:41:57;98909.22;;;2.46;83.06
74905;BME280;63465;50.862;6.220;2023-01-19T09:44:28;98916.19;;;2.47;82.73
74905;BME280;63465;50.862;6.220;2023-01-19T09:46:55;98922.16;;;2.52;82.17
74905;BME280;63465;50.862;6.220;2023-01-19T09:49:26;98924.13;;;2.44;83.01
74905;BME280;63465;50.862;6.220;2023-01-19T09:51:55;98925.47;;;2.57;81.95
74905;BME280;63465;50.862;6.220;2023-01-19T09:54:28;98928.31;;;2.49;82.53
74905;BME280;63465;50.862;6.220;2023-01-19T09:56:58;98936.13;;;2.51;82.87
74905;BME280;63465;50.862;6.220;2023-01-19T09:59:28;98942.69;;;2.36;82.87
74905;BME280;63465;50.862;6.220;2023-01-19T10:02:05;98941.81;;;2.36;83.30
74905;BME280;63465;50.862;6.220;2023-01-19T10:04:35;98943.53;;;2.68;82.30
74905;BME280;63465;50.862;6.220;2023-01-19T10:07:12;98948.06;;;2.61;82.17
74905;BME280;63465;50.862;6.220;2023-01-19T10:10:01;98951.81;;;2.53;82.36
74905;BME280;63465;50.862;6.220;2023-01-19T10:12:42;98958.31;;;2.69;81.90
74905;BME280;63465;50.862;6.220;2023-01-19T10:15:16;98949.84;;;2.61;82.48
74905;BME280;63465;50.862;6.220;2023-01-19T10:17:52;98945.00;;;2.77;81.98
74905;BME280;63465;50.862;6.220;2023-01-19T10:20:25;98947.16;;;2.92;81.36
74905;BME280;63465;50.862;6.220;2023-01-19T10:22:54;98947.22;;;2.91;81.02
74905;BME280;63465;50.862;6.220;2023-01-19T10:25:24;98941.78;;;2.97;81.35
74905;BME280;63465;50.862;6.220;2023-01-19T10:27:52;98944.50;;;2.94;81.12
74905;BME280;63465;50.862;6.220;2023-01-19T10:30:21;98944.28;;;3.01;80.70
74905;BME280;63465;50.862;6.220;2023-01-19T10:32:49;98945.47;;;3.19;80.41
74905;BME280;63465;50.862;6.220;2023-01-19T10:35:18;98951.50;;;2.93;80.63
74905;BME280;63465;50.862;6.220;2023-01-19T10:37:49;98954.78;;;3.00;80.98
74905;BME280;63465;50.862;6.220;2023-01-19T10:40:25;98951.56;;;2.92;81.13
74905;BME280;63465;50.862;6.220;2023-01-19T10:42:55;98951.19;;;3.04;81.13
74905;BME280;63465;50.862;6.220;2023-01-19T10:45:24;98953.06;;;3.00;81.07
74905;BME280;63465;50.862;6.220;2023-01-19T10:47:52;98951.50;;;2.93;81.56
74905;BME280;63465;50.862;6.220;2023-01-19T10:50:24;98944.97;;;3.08;80.30
74905;BME280;63465;50.862;6.220;2023-01-19T10:52:53;98949.59;;;3.28;80.17
74905;BME280;63465;50.862;6.220;2023-01-19T10:55:27;98953.00;;;3.30;80.13
74905;BME280;63465;50.862;6.220;2023-01-19T10:57:55;98957.00;;;3.14;80.16
74905;BME280;63465;50.862;6.220;2023-01-19T11:00:31;98953.19;;;3.52;79.82
74905;BME280;63465;50.862;6.220;2023-01-19T11:02:58;98949.94;;;3.44;79.77
74905;BME280;63465;50.862;6.220;2023-01-19T11:05:27;98953.34;;;3.74;78.95
74905;BME280;63465;50.862;6.220;2023-01-19T11:07:54;98959.59;;;3.44;78.91
74905;BME280;63465;50.862;6.220;2023-01-19T11:10:23;98957.72;;;3.47;78.79
74905;BME280;63465;50.862;6.220;2023-01-19T11:13:01;98953.75;;;3.62;78.86
74905;BME280;63465;50.862;6.220;2023-01-19T11:15:31;98954.78;;;3.30;79.77
74905;BME280;63465;50.862;6.220;2023-01-19T11:18:00;98958.75;;;3.43;78.80
74905;BME280;63465;50.862;6.220;2023-01-19T11:20:29;98961.84;;;3.26;79.39
74905;BME280;63465;50.862;6.220;2023-01-19T11:23:04;98964.28;;;3.04;79.68
74905;BME280;63465;50.862;6.220;2023-01-19T11:25:33;98971.41;;;3.00;80.27
74905;BME280;63465;50.862;6.220;2023-01-19T11:28:02;98966.25;;;2.97;80.84
74905;BME280;63465;50.862;6.220;2023-01-19T11:30:29;98964.28;;;3.04;80.86
74905;BME280;63465;50.862;6.220;2023-01-19T11:32:56;98959.09;;;3.02;81.12
74905;BME280;63465;50.862;6.220;2023-01-19T11:35:34;98962.25;;;3.14;80.06
74905;BME280;63465;50.862;6.220;2023-01-19T11:38:20;98960.16;;;3.25;80.16
74905;BME280;63465;50.862;6.220;2023-01-19T11:40:53;98956.91;;;3.17;79.43
74905;BME280;63465;50.862;6.220;2023-01-19T11:43:23;98958.63;;;3.18;79.73
74905;BME280;63465;50.862;6.220;2023-01-19T11:45:50;98961.81;;;3.28;79.20
74905;BME280;63465;50.862;6.220;2023-01-19T11:48:22;98955.38;;;3.38;79.12
74905;BME280;63465;50.862;6.220;2023-01-19T11:50:51;98953.69;;;3.37;79.46
74905;BME280;63465;50.862;6.220;2023-01-19T11:53:20;98946.00;;;3.31;79.23
74905;BME280;63465;50.862;6.220;2023-01-19T11:55:52;98954.22;;;3.18;79.71
74905;BME280;63465;50.862;6.220;2023-01-19T11:58:23;98953.94;;;3.29;79.21
74905;BME280;63465;50.862;6.220;2023-01-19T12:00:53;98950.63;;;3.22;79.70
74905;BME280;63465;50.862;6.220;2023-01-19T12:03:25;98958.44;;;3.24;79.45
74905;BME280;63465;50.862;6.220;2023-01-19T12:05:58;98949.97;;;3.16;79.03
74905;BME280;63465;50.862;6.220;2023-01-19T12:08:29;98943.19;;;3.09;80.02
74905;BME280;63465;50.862;6.220;2023-01-19T12:10:59;98940.78;;;3.01;80.42
74905;BME280;63465;50.862;6.220;2023-01-19T12:13:30;98946.84;;;3.31;79.23
74905;BME280;63465;50.862;6.220;2023-01-19T12:16:00;98939.84;;;3.03;79.75
74905;BME280;63465;50.862;6.220;2023-01-19T12:18:32;98939.94;;;3.00;80.06
74905;BME280;63465;50.862;6.220;2023-01-19T12:21:00;98949.47;;;3.03;80.12
74905;BME280;63465;50.862;6.220;2023-01-19T12:23:45;98939.03;;;3.30;79.25
74905;BME280;63465;50.862;6.220;2023-01-19T12:26:28;98937.84;;;3.12;79.64
74905;BME280;63465;50.862;6.220;2023-01-19T12:29:04;98943.41;;;3.31;79.53
74905;BME280;63465;50.862;6.220;2023-01-19T12:31:31;98939.25;;;3.50;78.91
74905;BME280;63465;50.862;6.220;2023-01-19T12:34:28;98944.94;;;3.36;78.46
74905;BME280;63465;50.862;6.220;2023-01-19T12:37:01;98956.25;;;3.10;79.12
74905;BME280;63465;50.862;6.220;2023-01-19T12:39:30;98942.94;;;3.16;78.41
74905;BME280;63465;50.862;6.220;2023-01-19T12:42:12;98950.00;;;3.14;79.76
74905;BME280;63465;50.862;6.220;2023-01-19T12:44:42;98955.63;;;3.02;79.27
74905;BME280;63465;50.862;6.220;2023-01-19T12:47:18;98952.28;;;3.25;78.46
74905;BME280;63465;50.862;6.220;2023-01-19T12:49:49;98960.91;;;3.29;78.61
74905;BME280;63465;50.862;6.220;2023-01-19T12:52:20;98955.66;;;3.29;78.35
74905;BME280;63465;50.862;6.220;2023-01-19T12:54:58;98956.34;;;3.07;78.64
74905;BME280;63465;50.862;6.220;2023-01-19T12:57:29;98967.19;;;3.23;78.13
74905;BME280;63465;50.862;6.220;2023-01-19T13:00:00;98962.56;;;3.03;78.84
74905;BME280;63465;50.862;6.220;2023-01-19T13:02:40;98967.56;;;3.11;78.55
74905;BME280;63465;50.862;6.220;2023-01-19T13:05:17;98954.31;;;3.15;78.02
74905;BME280;63465;50.862;6.220;2023-01-19T13:08:14;98965.28;;;3.00;78.48
74905;BME280;63465;50.862;6.220;2023-01-19T13:11:16;98951.81;;;3.12;77.96
74905;BME280;63465;50.862;6.220;2023-01-19T13:17:20;98959.13;;;3.31;77.87
74905;BME280;63465;50.862;6.220;2023-01-19T13:20:00;98951.50;;;3.21;77.57
74905;BME280;63465;50.862;6.220;2023-01-19T13:25:46;98959.34;;;3.51;76.84
74905;BME280;63465;50.862;6.220;2023-01-19T13:28:16;98963.13;;;3.14;76.58
74905;BME280;63465;50.862;6.220;2023-01-19T13:30:53;98954.63;;;3.34;76.09
74905;BME280;63465;50.862;6.220;2023-01-19T13:33:23;98957.88;;;3.14;76.94